Time;durP1;ratioP1;P1;durP2;ratioP2;P2;SDS_P1;SDS_P2;PMS_P1;PMS_P2;Temp;Humidity;BMP_temperature;BMP_pressure;BME280_temperature;BME280_humidity;BME280_pressure;Samples;Min_cycle;Max_cycle;Signal;HPM_P1;HPM_P2
2023/01/12 00:02:04;;;;;;;14.50;2.80;;;9.70;99.90;;;;;;5034149;28;20083;-88
2023/01/12 00:04:32;;;;;;;21.90;2.67;;;7.50;99.90;;;;;;5051841;28;20041;-85
2023/01/12 00:07:01;;;;;;;22.25;3.90;;;9.40;99.90;;;;;;5058362;28;20059;-86
2023/01/12 00:09:27;;;;;;;19.35;3.58;;;9.40;99.90;;;;;;5081750;28;20494;-85
2023/01/12 00:11:53;;;;;;;18.08;3.28;;;7.50;99.90;;;;;;5030592;28;20048;-84
2023/01/12 00:14:18;;;;;;;20.85;3.63;;;7.90;99.90;;;;;;5054246;28;22047;-88
2023/01/12 00:16:44;;;;;;;20.70;3.38;;;9.40;99.90;;;;;;5028477;28;20083;-85
2023/01/12 00:19:15;;;;;;;26.55;3.83;;;8.90;99.90;;;;;;5031400;28;20071;-84
2023/01/12 00:24:22;;;;;;;30.25;4.38;;;9.30;99.90;;;;;;5048686;28;20116;-84
2023/01/12 00:26:48;;;;;;;14.75;3.85;;;9.40;99.90;;;;;;5060527;28;20056;-88
2023/01/12 00:29:15;;;;;;;26.73;3.75;;;9.70;99.90;;;;;;5032290;28;20033;-83
2023/01/12 00:31:41;;;;;;;21.58;3.65;;;9.10;99.90;;;;;;5037590;28;20048;-82
2023/01/12 00:34:07;;;;;;;21.55;3.85;;;7.80;99.90;;;;;;5033235;28;21624;-88
2023/01/12 00:36:33;;;;;;;24.23;3.95;;;7.80;99.90;;;;;;5039072;28;20060;-83
2023/01/12 00:38:59;;;;;;;26.73;4.57;;;9.00;99.90;;;;;;5046108;28;20045;-83
2023/01/12 00:46:59;;;;;;;22.02;4.18;;;7.60;99.90;;;;;;5054070;28;20061;-85
2023/01/12 00:49:25;;;;;;;21.48;4.53;;;7.90;99.90;;;;;;5080370;28;20086;-83
2023/01/12 00:51:50;;;;;;;28.38;4.10;;;7.90;99.90;;;;;;5044948;28;20500;-83
2023/01/12 00:54:16;;;;;;;32.25;4.10;;;8.80;99.90;;;;;;5043577;28;20040;-84
2023/01/12 00:56:42;;;;;;;20.52;3.55;;;7.80;99.90;;;;;;5048845;28;20041;-84
2023/01/12 00:59:07;;;;;;;29.80;4.25;;;9.40;99.90;;;;;;5033531;28;21794;-82
2023/01/12 01:01:33;;;;;;;23.48;3.67;;;9.60;99.90;;;;;;5060330;28;20036;-85
2023/01/12 01:03:59;;;;;;;22.30;4.22;;;9.60;99.90;;;;;;5065770;28;20353;-85
2023/01/12 01:06:49;;;;;;;17.73;3.10;;;7.90;99.90;;;;;;5078329;28;20052;-86
2023/01/12 01:09:42;;;;;;;22.98;3.20;;;9.60;99.90;;;;;;5037286;28;20040;-84
2023/01/12 05:27:21;;;;;;;4.00;1.10;;;8.10;99.90;;;;;;4847767;29;20212;-86
2023/01/12 05:38:30;;;;;;;5.30;0.68;;;8.00;99.90;;;;;;4761882;30;20504;-83
2023/01/12 05:46:21;;;;;;;6.70;0.50;;;8.00;99.90;;;;;;4707781;30;20423;-85
2023/01/12 05:49:22;;;;;;;3.03;0.85;;;8.00;99.90;;;;;;5095177;27;20425;-84
2023/01/12 05:51:48;;;;;;;2.10;0.40;;;8.10;99.90;;;;;;5064455;28;20157;-84
2023/01/12 05:54:13;;;;;;;3.33;0.55;;;9.90;99.90;;;;;;5077929;28;20123;-86
2023/01/12 05:56:40;;;;;;;4.68;0.88;;;8.00;99.90;;;;;;5059202;28;20036;-82
2023/01/12 05:59:06;;;;;;;1.23;0.55;;;8.10;99.90;;;;;;5057050;28;20033;-85
2023/01/12 06:01:31;;;;;;;1.42;0.30;;;9.50;99.90;;;;;;5051106;28;20051;-84
2023/01/12 06:03:59;;;;;;;2.10;0.35;;;9.50;99.90;;;;;;5059408;28;20403;-85
2023/01/12 06:06:26;;;;;;;1.13;0.40;;;9.70;99.90;;;;;;5074650;28;20036;-86
2023/01/12 06:08:53;;;;;;;2.90;0.68;;;8.10;99.90;;;;;;5041809;28;20049;-86
2023/01/12 06:14:05;;;;;;;1.05;0.20;;;9.30;99.90;;;;;;5056064;28;20068;-84
2023/01/12 06:16:30;;;;;;;3.17;0.40;;;9.70;99.90;;;;;;5072471;28;20400;-85
2023/01/12 06:18:56;;;;;;;9.48;0.52;;;8.50;99.90;;;;;;5056442;28;20032;-85
2023/01/12 06:21:23;;;;;;;3.78;0.60;;;7.90;99.90;;;;;;5041556;28;20432;-86
2023/01/12 06:23:48;;;;;;;3.50;1.48;;;7.80;99.90;;;;;;5059005;28;20129;-86
2023/01/12 06:26:14;;;;;;;2.80;0.50;;;8.20;99.90;;;;;;5043756;28;20041;-82
2023/01/12 06:28:41;;;;;;;0.60;0.17;;;9.90;99.90;;;;;;5047237;28;20036;-86
2023/01/12 06:31:09;;;;;;;1.55;0.40;;;10.20;99.90;;;;;;5056617;28;20069;-86
2023/01/12 06:33:36;;;;;;;1.92;0.22;;;8.20;99.90;;;;;;5042318;28;20044;-85
2023/01/12 06:36:02;;;;;;;1.00;0.57;;;9.90;99.90;;;;;;5063481;28;20043;-85
2023/01/12 06:38:30;;;;;;;2.30;0.20;;;8.40;99.90;;;;;;5077090;28;20161;-85
2023/01/12 06:43:55;;;;;;;1.88;0.30;;;9.40;99.90;;;;;;5058509;28;20053;-83
2023/01/12 06:46:21;;;;;;;0.70;0.20;;;8.50;99.90;;;;;;5074371;28;20040;-84
2023/01/12 06:48:47;;;;;;;0.40;0.20;;;8.50;99.90;;;;;;5058379;28;20566;-86
2023/01/12 06:51:12;;;;;;;0.85;0.20;;;8.60;99.90;;;;;;5039913;28;20101;-85
2023/01/12 06:53:38;;;;;;;1.17;0.60;;;10.10;99.90;;;;;;5076019;28;20067;-84
2023/01/12 06:56:04;;;;;;;3.22;0.73;;;9.90;99.90;;;;;;5074852;28;20118;-86
2023/01/12 06:58:29;;;;;;;4.40;1.10;;;8.80;99.90;;;;;;5075293;28;20033;-85
2023/01/12 07:01:00;;;;;;;2.75;0.90;;;8.90;99.90;;;;;;5064133;28;20604;-83
2023/01/12 07:03:26;;;;;;;3.40;0.60;;;8.40;99.90;;;;;;5021483;28;20040;-86
2023/01/12 07:05:51;;;;;;;2.40;0.70;;;9.40;99.90;;;;;;5062970;28;20044;-86
2023/01/12 07:08:18;;;;;;;1.52;0.68;;;9.20;99.90;;;;;;5043752;28;20032;-82
2023/01/12 07:10:45;;;;;;;5.00;0.70;;;9.40;99.90;;;;;;5044398;28;20120;-85
2023/01/12 07:13:11;;;;;;;3.42;0.85;;;9.20;99.90;;;;;;5043709;28;20127;-87
2023/01/12 07:15:37;;;;;;;5.10;1.48;;;9.20;99.90;;;;;;5041452;28;20131;-87
2023/01/12 07:18:02;;;;;;;7.45;1.60;;;10.90;99.90;;;;;;5060045;28;20056;-88
2023/01/12 07:20:28;;;;;;;6.32;1.60;;;9.40;99.90;;;;;;5064134;28;20912;-85
2023/01/12 07:22:54;;;;;;;10.32;2.10;;;10.70;99.90;;;;;;5043534;28;20054;-83
2023/01/12 07:25:20;;;;;;;12.80;2.00;;;10.80;99.90;;;;;;5042493;28;20028;-86
2023/01/12 07:27:50;;;;;;;13.45;2.13;;;9.80;99.90;;;;;;5063382;28;20487;-84
2023/01/12 07:30:17;;;;;;;8.85;2.13;;;11.10;99.90;;;;;;4687076;28;10001297;-84
2023/01/12 07:32:43;;;;;;;10.10;2.30;;;9.40;99.90;;;;;;5049533;28;20037;-83
2023/01/12 07:35:09;;;;;;;15.85;2.45;;;9.50;99.90;;;;;;5063357;28;20087;-82
2023/01/12 07:37:34;;;;;;;15.82;2.92;;;10.70;99.90;;;;;;5044245;28;20072;-82
2023/01/12 07:40:00;;;;;;;14.23;2.20;;;10.30;99.90;;;;;;5063688;28;20044;-84
2023/01/12 07:42:26;;;;;;;15.10;2.67;;;9.60;99.90;;;;;;5063746;28;20078;-86
2023/01/12 07:44:52;;;;;;;10.85;1.55;;;9.60;99.90;;;;;;5045416;28;20119;-86
2023/01/12 07:47:18;;;;;;;22.70;3.75;;;9.70;99.90;;;;;;5046372;28;20051;-83
2023/01/12 07:49:44;;;;;;;16.45;3.20;;;11.40;99.90;;;;;;5060894;28;20052;-86
2023/01/12 07:52:11;;;;;;;14.25;2.67;;;11.00;99.90;;;;;;5067027;28;20106;-87
2023/01/12 07:54:40;;;;;;;19.38;4.65;;;11.20;99.90;;;;;;5047869;28;20048;-85
2023/01/12 07:57:10;;;;;;;19.73;3.92;;;9.80;99.90;;;;;;5046242;28;20032;-85
2023/01/12 07:59:36;;;;;;;25.85;3.88;;;9.90;99.90;;;;;;5048305;28;20055;-84
2023/01/12 08:02:03;;;;;;;22.35;3.72;;;9.80;99.90;;;;;;5029068;28;20140;-87
2023/01/12 08:04:29;;;;;;;20.50;3.40;;;9.20;99.90;;;;;;5038613;28;20439;-86
2023/01/12 08:06:56;;;;;;;20.80;3.72;;;10.70;99.90;;;;;;5046254;28;20067;-89
2023/01/12 08:09:22;;;;;;;21.58;3.30;;;9.70;99.90;;;;;;5044848;28;20644;-84
2023/01/12 08:11:47;;;;;;;20.67;3.60;;;10.00;99.90;;;;;;5046647;28;20324;-81
2023/01/12 08:14:24;;;;;;;24.10;3.80;;;10.80;99.90;;;;;;5046298;28;20506;-83
2023/01/12 08:16:52;;;;;;;20.85;3.60;;;10.10;99.90;;;;;;5067897;28;20102;-83
2023/01/12 08:19:24;;;;;;;21.05;4.03;;;9.50;99.90;;;;;;5038166;28;20072;-82
2023/01/12 08:21:56;;;;;;;23.98;4.50;;;10.00;99.90;;;;;;5032117;28;20043;-82
2023/01/12 08:24:32;;;;;;;26.60;5.10;;;10.00;99.90;;;;;;5029180;28;20071;-84
2023/01/12 08:27:01;;;;;;;29.02;5.15;;;9.10;99.90;;;;;;5033018;28;20488;-82
2023/01/12 08:29:38;;;;;;;23.38;4.00;;;11.50;99.90;;;;;;5052794;28;20513;-88
2023/01/12 08:32:05;;;;;;;25.00;4.82;;;10.30;99.90;;;;;;5063459;28;20155;-84
2023/01/12 08:34:33;;;;;;;18.63;3.10;;;10.10;99.90;;;;;;5062452;28;20510;-85
2023/01/12 08:37:04;;;;;;;22.20;3.35;;;11.60;99.90;;;;;;5064402;28;20207;-83
2023/01/12 08:39:30;;;;;;;15.55;3.03;;;11.00;99.90;;;;;;5052893;28;20037;-83
2023/01/12 08:41:55;;;;;;;19.08;3.50;;;10.20;99.90;;;;;;5047688;28;20101;-86
2023/01/12 08:44:21;;;;;;;17.95;3.17;;;10.20;99.90;;;;;;5052847;28;20068;-86
2023/01/12 08:46:50;;;;;;;17.55;3.15;;;10.20;99.90;;;;;;5032749;28;20072;-85
2023/01/12 08:49:18;;;;;;;17.13;2.72;;;11.60;99.90;;;;;;5031206;28;20052;-83
2023/01/12 08:51:44;;;;;;;21.13;3.60;;;11.00;99.90;;;;;;5067691;28;20040;-83
2023/01/12 08:54:11;;;;;;;14.18;3.17;;;10.40;99.90;;;;;;5054960;28;20048;-84
2023/01/12 08:56:37;;;;;;;15.90;2.30;;;11.30;99.90;;;;;;5065906;28;20048;-84
2023/01/12 08:59:03;;;;;;;16.48;3.47;;;10.50;99.90;;;;;;5052702;28;20037;-85
2023/01/12 09:01:29;;;;;;;9.52;1.95;;;10.40;99.90;;;;;;5026716;28;20068;-81
2023/01/12 09:03:56;;;;;;;17.83;3.20;;;11.90;99.90;;;;;;5048946;28;20060;-83
2023/01/12 09:06:30;;;;;;;27.17;3.75;;;10.40;99.90;;;;;;5066617;28;20044;-86
2023/01/12 09:08:57;;;;;;;;;;;10.30;99.90;;;;;;5037170;28;20178;-82
2023/01/12 09:11:23;;;;;;;20.08;3.55;;;11.80;99.90;;;;;;5051259;28;19928;-82
2023/01/12 09:13:49;;;;;;;13.68;2.40;;;11.90;99.90;;;;;;5054547;28;20047;-82
2023/01/12 09:16:17;;;;;;;17.65;3.20;;;11.40;99.90;;;;;;5049391;28;20036;-85
2023/01/12 09:18:43;;;;;;;18.80;2.92;;;10.50;99.90;;;;;;5068624;28;20067;-84
2023/01/12 09:21:12;;;;;;;16.08;2.45;;;11.90;99.90;;;;;;5050177;28;20052;-85
2023/01/12 09:23:38;;;;;;;14.23;3.22;;;11.40;99.90;;;;;;5053348;28;20480;-86
2023/01/12 09:26:10;;;;;;;21.35;2.95;;;11.20;99.90;;;;;;5050369;28;20063;-83
2023/01/12 09:28:37;;;;;;;22.13;3.88;;;11.70;99.90;;;;;;5067067;28;20051;-83
2023/01/12 09:31:05;;;;;;;21.13;3.85;;;11.00;99.90;;;;;;5030001;28;20041;-81
2023/01/12 09:33:32;;;;;;;23.30;3.22;;;10.40;99.90;;;;;;5050003;28;20119;-81
2023/01/12 09:36:11;;;;;;;21.98;3.15;;;11.50;99.90;;;;;;5049242;28;20449;-81
2023/01/12 09:38:39;;;;;;;17.90;4.72;;;11.00;99.90;;;;;;5052604;28;20075;-80
2023/01/12 09:48:00;;;;;;;19.58;2.63;;;10.60;99.90;;;;;;5052090;28;20075;-80
2023/01/12 09:50:54;;;;;;;12.68;2.00;;;10.10;99.90;;;;;;5003205;28;20056;-81
2023/01/12 09:53:30;;;;;;;17.60;2.67;;;10.60;99.90;;;;;;5024357;28;20443;-84
2023/01/12 09:56:07;;;;;;;18.77;3.53;;;10.60;99.90;;;;;;5040723;28;20041;-82
2023/01/12 09:58:47;;;;;;;18.95;3.15;;;10.60;99.90;;;;;;5044490;28;20048;-84
2023/01/12 10:01:14;;;;;;;15.55;2.55;;;10.70;99.90;;;;;;5045825;28;20047;-85
2023/01/12 10:03:41;;;;;;;13.45;2.25;;;11.00;99.90;;;;;;5067462;28;20765;-84
2023/01/12 10:06:13;;;;;;;16.90;2.63;;;11.50;99.90;;;;;;5031375;28;20040;-80
2023/01/12 10:08:44;;;;;;;17.10;2.63;;;11.40;99.90;;;;;;5035912;28;20407;-79
2023/01/12 10:11:25;;;;;;;12.77;1.90;;;11.90;99.90;;;;;;5061033;28;20049;-79
2023/01/12 10:14:02;;;;;;;11.50;2.20;;;10.90;99.90;;;;;;5064503;28;20130;-79
2023/01/12 10:16:30;;;;;;;15.70;2.60;;;11.00;99.90;;;;;;5060006;28;20451;-79
2023/01/12 10:18:59;;;;;;;23.15;2.70;;;10.90;99.90;;;;;;5049049;28;20051;-79
2023/01/12 10:21:27;;;;;;;17.77;2.92;;;11.50;99.90;;;;;;5065870;28;20040;-80
2023/01/12 10:23:53;;;;;;;16.67;2.83;;;11.50;99.90;;;;;;5039024;28;20048;-79
2023/01/12 10:26:23;;;;;;;11.32;1.90;;;11.60;99.90;;;;;;5047269;28;20037;-79
2023/01/12 10:28:52;;;;;;;15.50;1.70;;;11.00;99.90;;;;;;5066199;28;20051;-79
2023/01/12 10:31:23;;;;;;;9.77;1.35;;;11.00;99.90;;;;;;5048721;28;20045;-80
2023/01/12 10:34:10;;;;;;;18.40;4.00;;;11.10;99.90;;;;;;5059779;28;20504;-80
2023/01/12 10:36:45;;;;;;;14.45;2.38;;;11.00;99.90;;;;;;5051305;28;20087;-79
2023/01/12 10:39:35;;;;;;;12.77;2.72;;;10.90;99.90;;;;;;5050542;28;20430;-79
2023/01/12 10:45:22;;;;;;;15.32;2.08;;;11.00;99.90;;;;;;5052880;28;20040;-79
2023/01/12 10:47:51;;;;;;;17.05;2.78;;;11.00;99.90;;;;;;5033012;28;20548;-82
2023/01/12 10:50:31;;;;;;;21.02;2.13;;;11.00;99.90;;;;;;5037615;28;20053;-83
2023/01/12 10:53:14;;;;;;;16.20;2.58;;;11.00;99.90;;;;;;5038770;28;20047;-84
2023/01/12 10:55:41;;;;;;;12.90;2.08;;;11.00;99.90;;;;;;5052145;28;20044;-83
2023/01/12 10:58:24;;;;;;;17.02;2.60;;;11.10;99.90;;;;;;5042041;28;20048;-83
2023/01/12 11:00:52;;;;;;;18.67;2.60;;;12.20;99.90;;;;;;5069769;28;20108;-82
2023/01/12 11:03:39;;;;;;;13.38;2.75;;;12.60;99.90;;;;;;5069117;28;20045;-81
2023/01/12 11:06:17;;;;;;;13.75;3.30;;;11.10;99.90;;;;;;5035478;28;20099;-81
2023/01/12 11:08:42;;;;;;;10.90;2.15;;;11.20;99.90;;;;;;5054735;28;20705;-83
2023/01/12 11:11:29;;;;;;;18.50;3.50;;;11.20;99.90;;;;;;5070178;28;20037;-83
2023/01/12 11:14:00;;;;;;;17.02;2.60;;;11.10;99.90;;;;;;5039381;28;20052;-83
2023/01/12 11:16:46;;;;;;;16.65;2.40;;;11.20;99.90;;;;;;5068636;28;20137;-81
2023/01/12 11:19:17;;;;;;;15.63;2.45;;;11.30;99.90;;;;;;5034662;28;20502;-81
2023/01/12 11:21:52;;;;;;;19.83;3.50;;;11.20;99.90;;;;;;5052376;28;20181;-84
2023/01/12 11:24:38;;;;;;;16.25;2.55;;;11.20;99.90;;;;;;5053195;28;20185;-84
2023/01/12 11:27:26;;;;;;;22.90;2.85;;;11.70;99.90;;;;;;5050270;28;20103;-80
2023/01/12 11:30:21;;;;;;;8.10;1.65;;;11.10;99.90;;;;;;5028404;28;20067;-82
2023/01/12 11:33:23;;;;;;;17.73;2.88;;;11.20;99.90;;;;;;5063692;28;20633;-83
2023/01/12 11:35:57;;;;;;;18.63;5.00;;;11.20;99.90;;;;;;5034219;28;20089;-80
2023/01/12 11:38:30;;;;;;;18.13;3.95;;;11.80;99.90;;;;;;5062050;28;20160;-81
2023/01/12 11:40:57;;;;;;;18.10;2.03;;;11.90;99.90;;;;;;5056935;28;20098;-81
2023/01/12 11:43:49;;;;;;;17.42;2.95;;;11.40;99.90;;;;;;5042107;28;20140;-82
2023/01/12 11:46:25;;;;;;;14.50;2.15;;;11.40;99.90;;;;;;5061138;28;20087;-81
2023/01/12 11:49:10;;;;;;;12.60;1.73;;;11.30;99.90;;;;;;5064335;28;20049;-83
2023/01/12 11:51:37;;;;;;;12.90;2.13;;;11.40;99.90;;;;;;5062521;28;20052;-82
2023/01/12 11:54:11;;;;;;;13.00;2.10;;;11.40;99.90;;;;;;5052919;28;20044;-81
2023/01/12 11:56:53;;;;;;;10.18;2.42;;;11.50;99.90;;;;;;5051949;28;20044;-82
2023/01/12 11:59:57;;;;;;;9.98;2.15;;;11.40;99.90;;;;;;5033270;28;20056;-82
2023/01/12 12:02:32;;;;;;;13.20;2.10;;;11.50;99.90;;;;;;5052190;28;20148;-81
2023/01/12 12:05:16;;;;;;;18.60;2.53;;;11.50;99.90;;;;;;5038259;28;20451;-82
2023/01/12 12:08:21;;;;;;;11.37;1.40;;;11.40;99.90;;;;;;5046063;28;20044;-80
2023/01/12 12:11:11;;;;;;;15.55;2.45;;;11.50;99.90;;;;;;5048343;28;20283;-82
2023/01/12 12:13:37;;;;;;;10.50;1.23;;;11.50;99.90;;;;;;5033528;28;20036;-81
2023/01/12 12:16:19;;;;;;;16.73;2.65;;;12.70;99.90;;;;;;5033581;28;21771;-80
2023/01/12 12:19:27;;;;;;;12.93;2.55;;;11.50;99.90;;;;;;5032692;28;20094;-81
2023/01/12 12:22:18;;;;;;;10.80;2.00;;;11.40;99.90;;;;;;5055169;28;20257;-82
2023/01/12 12:25:09;;;;;;;17.15;2.80;;;11.40;99.90;;;;;;5049522;28;20082;-81
2023/01/12 12:27:47;;;;;;;13.00;2.70;;;11.40;99.90;;;;;;5066879;28;20060;-81
2023/01/12 12:30:46;;;;;;;22.83;2.88;;;11.30;99.90;;;;;;5069017;28;20055;-81
2023/01/12 12:33:12;;;;;;;14.65;2.42;;;11.30;99.90;;;;;;5032461;28;20045;-81
2023/01/12 12:35:51;;;;;;;12.25;1.92;;;11.20;99.90;;;;;;5051623;28;20044;-82
2023/01/12 12:38:45;;;;;;;18.10;2.90;;;12.30;99.90;;;;;;5068243;28;20048;-80
2023/01/12 12:47:54;;;;;;;9.75;2.30;;;11.30;99.90;;;;;;5066146;28;20056;-80
2023/01/12 12:50:26;;;;;;;16.20;3.22;;;11.30;99.90;;;;;;5066594;28;20045;-80
2023/01/12 12:53:15;;;;;;;16.55;3.58;;;11.40;99.90;;;;;;5067228;28;20040;-80
2023/01/12 12:55:41;;;;;;;16.50;2.58;;;11.30;99.90;;;;;;5057929;28;20048;-80
2023/01/12 12:58:22;;;;;;;15.30;2.85;;;12.30;99.90;;;;;;5067172;28;20107;-80
2023/01/12 13:00:53;;;;;;;18.95;3.85;;;12.50;99.90;;;;;;5063826;28;20060;-81
2023/01/12 13:03:56;;;;;;;12.00;2.00;;;11.30;99.90;;;;;;5044554;28;20057;-80
2023/01/12 13:06:34;;;;;;;17.50;2.75;;;11.20;99.90;;;;;;5063044;28;20088;-79
2023/01/12 13:09:24;;;;;;;13.93;2.78;;;11.30;99.90;;;;;;5067769;28;20040;-81
2023/01/12 13:11:59;;;;;;;15.05;2.33;;;12.10;99.90;;;;;;5062342;28;20048;-80
2023/01/12 13:14:34;;;;;;;14.82;2.20;;;11.20;99.90;;;;;;5065572;28;20052;-82
2023/01/12 13:17:18;;;;;;;19.17;3.88;;;11.30;99.90;;;;;;5066735;28;20040;-81
2023/01/12 13:19:49;;;;;;;15.23;2.45;;;12.00;99.90;;;;;;5068261;28;20060;-82
2023/01/12 13:22:41;;;;;;;17.10;2.83;;;11.80;99.90;;;;;;5050336;28;20060;-80
2023/01/12 13:25:19;;;;;;;17.15;3.40;;;12.20;99.90;;;;;;5048356;28;20694;-81
2023/01/12 13:30:28;;;;;;;15.98;3.25;;;11.20;99.90;;;;;;5043039;28;20052;-79
2023/01/12 13:32:54;;;;;;;18.88;3.05;;;11.10;99.90;;;;;;5064284;28;20045;-80
2023/01/12 13:35:34;;;;;;;17.88;2.97;;;11.20;99.90;;;;;;5050010;28;20060;-80
2023/01/12 13:38:37;;;;;;;24.35;3.88;;;11.20;99.90;;;;;;5058514;28;20052;-80
2023/01/12 13:44:32;;;;;;;19.67;3.17;;;11.10;99.90;;;;;;4982192;28;20047;-81
2023/01/12 13:47:23;;;;;;;16.75;3.67;;;11.10;99.90;;;;;;5055496;28;20559;-80
2023/01/12 13:49:55;;;;;;;21.33;4.03;;;11.10;99.90;;;;;;5063099;28;20073;-81
2023/01/12 13:52:28;;;;;;;17.75;3.83;;;11.10;99.90;;;;;;5047504;28;20056;-80
2023/01/12 13:54:55;;;;;;;19.45;4.93;;;11.40;99.90;;;;;;5063567;28;20039;-80
2023/01/12 13:57:24;;;;;;;21.73;3.47;;;11.00;99.90;;;;;;5054246;28;20436;-82
2023/01/12 14:00:03;;;;;;;27.35;5.10;;;11.00;99.90;;;;;;5052677;28;20408;-81
2023/01/12 14:02:31;;;;;;;22.30;4.05;;;11.00;99.90;;;;;;4702868;28;10000069;-85
2023/01/12 14:05:02;;;;;;;25.75;4.57;;;10.90;99.90;;;;;;5047051;28;20032;-81
2023/01/12 14:07:43;;;;;;;21.48;3.38;;;12.00;99.90;;;;;;5064274;28;20143;-81
2023/01/12 14:10:25;;;;;;;20.38;4.03;;;11.00;99.90;;;;;;5055164;28;20048;-80
2023/01/12 14:12:55;;;;;;;28.73;4.75;;;10.90;99.90;;;;;;5052140;28;20040;-83
2023/01/12 14:18:14;;;;;;;25.35;6.38;;;10.90;99.90;;;;;;5050769;28;20523;-81
2023/01/12 14:20:46;;;;;;;23.20;4.05;;;10.90;99.90;;;;;;5068673;28;20098;-82
2023/01/12 14:23:16;;;;;;;33.00;7.63;;;12.20;99.90;;;;;;5068324;28;20082;-83
2023/01/12 14:25:42;;;;;;;25.25;4.95;;;11.00;99.90;;;;;;5064862;28;20043;-84
2023/01/12 14:28:17;;;;;;;29.23;4.95;;;11.90;99.90;;;;;;5061937;28;20131;-89
2023/01/12 14:30:50;;;;;;;20.23;3.72;;;10.90;99.90;;;;;;5061881;28;20040;-90
2023/01/12 14:33:19;;;;;;;22.63;4.00;;;11.70;99.90;;;;;;5064822;28;20080;-86
2023/01/12 14:35:46;;;;;;;29.60;5.40;;;10.80;99.90;;;;;;5063498;28;20551;-86
2023/01/12 14:38:16;;;;;;;29.33;5.22;;;11.70;99.90;;;;;;5047947;28;20090;-91
2023/01/12 14:40:59;;;;;;;25.75;5.35;;;12.20;99.90;;;;;;5050745;28;20101;-81
2023/01/12 14:46:37;;;;;;;26.05;3.65;;;11.60;99.90;;;;;;5045928;28;20055;-82
2023/01/12 14:49:29;;;;;;;21.52;4.03;;;11.10;99.90;;;;;;5036448;28;20041;-83
2023/01/12 14:52:16;;;;;;;13.30;2.60;;;10.50;99.90;;;;;;5044836;28;20552;-81
2023/01/12 14:54:42;;;;;;;8.07;1.67;;;10.50;99.90;;;;;;5068252;28;20041;-79
2023/01/12 14:57:47;;;;;;;12.90;2.20;;;11.90;99.90;;;;;;5050986;28;20045;-81
2023/01/12 15:00:42;;;;;;;10.45;2.00;;;10.50;99.90;;;;;;4965925;28;20270;-82
2023/01/12 15:03:20;;;;;;;7.15;1.58;;;11.50;99.90;;;;;;5026467;28;20056;-83
2023/01/12 15:05:51;;;;;;;7.57;1.90;;;10.50;99.90;;;;;;5062912;28;20033;-81
2023/01/12 15:08:26;;;;;;;4.13;1.35;;;10.80;99.90;;;;;;5049926;28;20087;-81
2023/01/12 15:10:58;;;;;;;5.25;0.90;;;10.40;99.90;;;;;;5043788;28;20689;-82
2023/01/12 15:13:25;;;;;;;5.22;1.25;;;10.50;99.90;;;;;;5059708;28;20423;-82
2023/01/12 15:27:06;;;;;;;1.63;0.82;;;10.40;99.90;;;;;;5069328;28;20040;-82
2023/01/12 15:29:31;;;;;;;2.97;0.70;;;11.90;99.90;;;;;;5047860;28;20045;-82
2023/01/12 15:31:57;;;;;;;4.15;1.00;;;11.70;99.90;;;;;;5050119;28;20050;-81
2023/01/12 15:34:23;;;;;;;1.60;0.43;;;10.40;99.90;;;;;;5048940;28;20092;-83
2023/01/12 15:36:48;;;;;;;4.65;1.10;;;11.40;99.90;;;;;;5066594;28;20047;-84
2023/01/12 15:39:14;;;;;;;2.75;0.70;;;11.70;99.90;;;;;;5068030;28;20503;-83
2023/01/12 15:44:24;;;;;;;4.32;1.23;;;10.30;99.90;;;;;;5050115;28;20102;-85
2023/01/12 15:46:51;;;;;;;4.40;1.25;;;11.80;99.90;;;;;;5059177;28;20044;-83
2023/01/12 15:49:20;;;;;;;5.53;1.67;;;10.50;99.90;;;;;;5065249;28;20056;-81
2023/01/12 15:51:49;;;;;;;9.05;2.80;;;10.50;99.90;;;;;;5046369;28;20045;-83
2023/01/12 15:54:19;;;;;;;11.98;2.42;;;10.40;99.90;;;;;;5038736;28;20689;-83
2023/01/12 15:56:45;;;;;;;10.95;2.58;;;10.00;99.90;;;;;;5047352;28;20547;-80
2023/01/12 15:59:11;;;;;;;9.90;2.67;;;11.30;99.90;;;;;;5068659;28;20087;-80
2023/01/12 16:01:44;;;;;;;12.05;3.35;;;11.70;99.90;;;;;;5048257;28;20071;-82
2023/01/12 16:04:23;;;;;;;17.40;3.20;;;10.40;99.90;;;;;;5047330;28;20063;-82
2023/01/12 16:06:51;;;;;;;14.20;3.00;;;10.40;99.90;;;;;;5048823;28;20070;-82
2023/01/12 16:09:17;;;;;;;11.60;3.50;;;10.30;99.90;;;;;;5042770;28;20037;-80
2023/01/12 16:11:46;;;;;;;14.73;3.15;;;10.40;99.90;;;;;;5043192;28;20090;-81
2023/01/12 16:14:13;;;;;;;13.75;3.15;;;10.30;99.90;;;;;;5048783;28;20086;-83
2023/01/12 16:16:39;;;;;;;9.50;2.70;;;10.60;99.90;;;;;;5047111;28;20040;-82
2023/01/12 16:19:08;;;;;;;4.30;2.03;;;10.50;99.90;;;;;;5032775;28;20506;-80
2023/01/12 16:21:34;;;;;;;7.13;2.15;;;9.10;99.90;;;;;;5063718;28;20062;-82
2023/01/12 16:24:01;;;;;;;10.35;2.20;;;10.30;99.90;;;;;;5049876;28;20041;-81
2023/01/12 16:26:28;;;;;;;6.05;1.70;;;10.20;99.90;;;;;;5048136;28;20085;-81
2023/01/12 16:28:56;;;;;;;6.05;2.22;;;10.30;99.90;;;;;;5049086;28;20491;-81
2023/01/12 16:31:22;;;;;;;5.82;1.85;;;10.20;99.90;;;;;;5043762;28;20036;-81
2023/01/12 16:33:47;;;;;;;2.67;1.20;;;10.20;99.90;;;;;;5062664;28;20051;-82
2023/01/12 16:36:17;;;;;;;3.28;1.30;;;11.60;99.90;;;;;;5063652;28;20080;-82
2023/01/12 16:38:44;;;;;;;4.00;1.63;;;10.20;99.90;;;;;;5060806;28;20049;-82
2023/01/12 16:41:21;;;;;;;3.10;1.35;;;11.50;99.90;;;;;;5046701;28;20131;-81
2023/01/12 16:43:47;;;;;;;1.60;0.82;;;10.40;99.90;;;;;;5053945;28;20084;-81
2023/01/12 16:46:14;;;;;;;5.13;0.88;;;10.30;99.90;;;;;;5031369;28;20044;-81
2023/01/12 16:48:41;;;;;;;3.83;1.30;;;10.30;99.90;;;;;;5045846;28;20057;-81
2023/01/12 16:51:17;;;;;;;5.85;1.27;;;10.30;99.90;;;;;;5032070;28;20041;-81
2023/01/12 16:53:43;;;;;;;4.25;2.13;;;10.20;99.90;;;;;;5055972;28;20052;-81
2023/01/12 16:56:11;;;;;;;3.75;1.70;;;10.30;99.90;;;;;;5060753;28;20227;-82
2023/01/12 16:58:37;;;;;;;4.63;1.02;;;10.30;99.90;;;;;;5062887;28;20044;-81
2023/01/12 17:01:12;;;;;;;1.40;1.20;;;11.50;99.90;;;;;;5039842;28;20508;-81
2023/01/12 17:03:40;;;;;;;3.55;1.35;;;11.00;99.90;;;;;;5027606;28;20073;-80
2023/01/12 17:06:08;;;;;;;1.45;0.50;;;10.80;99.90;;;;;;5057805;28;20186;-81
2023/01/12 17:08:38;;;;;;;3.70;1.23;;;10.20;99.90;;;;;;5054837;28;20087;-80
2023/01/12 17:11:15;;;;;;;2.28;1.40;;;11.60;99.90;;;;;;5041604;28;20083;-80
2023/01/12 17:13:41;;;;;;;2.53;1.00;;;10.30;99.90;;;;;;5044066;28;20048;-81
2023/01/12 17:16:10;;;;;;;6.47;1.70;;;11.50;99.90;;;;;;5047497;28;20048;-81
2023/01/12 17:18:37;;;;;;;3.45;1.38;;;10.20;99.90;;;;;;5028178;28;20071;-81
2023/01/12 17:21:06;;;;;;;2.47;1.17;;;11.20;99.90;;;;;;5048445;28;20048;-80
2023/01/12 17:23:32;;;;;;;2.63;1.27;;;10.20;99.90;;;;;;5026881;28;20037;-80
2023/01/12 17:26:05;;;;;;;1.02;0.55;;;10.10;99.90;;;;;;5039472;28;20053;-81
2023/01/12 17:28:33;;;;;;;0.88;0.88;;;10.30;99.90;;;;;;5029585;28;20166;-80
2023/01/12 17:31:09;;;;;;;1.08;1.08;;;10.20;99.90;;;;;;5062695;28;20036;-80
2023/01/12 17:33:36;;;;;;;1.70;1.23;;;10.30;99.90;;;;;;5058573;28;20040;-80
2023/01/12 17:36:06;;;;;;;2.60;1.77;;;9.80;99.90;;;;;;5046449;28;20391;-80
2023/01/12 17:38:33;;;;;;;1.88;1.50;;;10.30;99.90;;;;;;5038425;28;20045;-82
2023/01/12 17:40:58;;;;;;;3.08;1.60;;;10.30;99.90;;;;;;5045391;28;20703;-80
2023/01/12 17:43:25;;;;;;;3.70;1.55;;;10.30;99.90;;;;;;5033708;28;20057;-80
2023/01/12 17:45:51;;;;;;;11.00;2.60;;;11.00;99.90;;;;;;5031481;28;20475;-81
2023/01/12 17:48:18;;;;;;;6.55;2.47;;;10.40;99.90;;;;;;5028349;28;20056;-80
2023/01/12 17:50:45;;;;;;;4.85;1.80;;;11.70;99.90;;;;;;5058772;28;20055;-80
2023/01/12 17:53:11;;;;;;;9.82;2.92;;;10.80;99.90;;;;;;5047982;28;20136;-81
2023/01/12 17:55:38;;;;;;;7.70;2.58;;;10.30;99.90;;;;;;5044659;28;20108;-81
2023/01/12 17:58:04;;;;;;;8.85;2.28;;;10.40;99.90;;;;;;5055878;28;20040;-80
2023/01/12 18:00:31;;;;;;;11.02;2.72;;;11.80;99.90;;;;;;5042625;28;20043;-81
2023/01/12 18:02:56;;;;;;;9.75;2.90;;;10.80;99.90;;;;;;5037224;28;20083;-80
2023/01/12 18:05:30;;;;;;;7.28;1.90;;;11.80;99.90;;;;;;5048203;28;20041;-80
2023/01/12 18:07:56;;;;;;;6.15;2.25;;;10.50;99.90;;;;;;5031939;28;20419;-80
2023/01/12 18:10:22;;;;;;;5.57;1.33;;;11.20;99.90;;;;;;5030567;28;20048;-80
2023/01/12 18:12:47;;;;;;;10.32;1.85;;;10.60;99.90;;;;;;5033383;28;20067;-80
2023/01/12 18:15:13;;;;;;;7.90;1.50;;;10.50;99.90;;;;;;5048150;28;20040;-80
2023/01/12 18:17:38;;;;;;;7.22;1.85;;;10.50;99.90;;;;;;5065365;28;20459;-80
2023/01/12 18:20:06;;;;;;;8.90;1.70;;;10.50;99.90;;;;;;5047534;28;20052;-80
2023/01/12 18:22:32;;;;;;;5.60;1.40;;;10.50;99.90;;;;;;5064264;28;20076;-80
2023/01/12 18:24:57;;;;;;;7.70;2.03;;;11.40;99.90;;;;;;5046242;28;20051;-80
2023/01/12 18:27:23;;;;;;;8.05;2.22;;;11.30;99.90;;;;;;5045924;28;20044;-80
2023/01/12 18:29:49;;;;;;;11.30;2.97;;;10.50;99.90;;;;;;5063011;28;20045;-79
2023/01/12 18:32:15;;;;;;;8.35;1.40;;;11.70;99.90;;;;;;5045862;28;20043;-80